sensor_id;sensor_type;location;lat;lon;timestamp;temperature;humidity
11280;DHT22;5696;50.928;6.960;2022-09-23T05:02:07;10.40;99.90
11280;DHT22;5696;50.928;6.960;2022-09-23T05:04:33;10.40;99.90
11280;DHT22;5696;50.928;6.960;2022-09-23T05:06:59;10.40;99.90
11280;DHT22;5696;50.928;6.960;2022-09-23T05:09:26;10.40;99.90
11280;DHT22;5696;50.928;6.960;2022-09-23T05:11:51;10.40;99.90
11280;DHT22;5696;50.928;6.960;2022-09-23T05:14:17;10.40;99.90
11280;DHT22;5696;50.928;6.960;2022-09-23T05:16:42;10.40;99.90
11280;DHT22;5696;50.928;6.960;2022-09-23T05:19:08;10.40;99.90
11280;DHT22;5696;50.928;6.960;2022-09-23T05:21:34;10.40;99.90
11280;DHT22;5696;50.928;6.960;2022-09-23T05:24:01;10.50;99.90
11280;DHT22;5696;50.928;6.960;2022-09-23T05:26:29;10.50;99.90
11280;DHT22;5696;50.928;6.960;2022-09-23T05:28:55;10.50;99.90
11280;DHT22;5696;50.928;6.960;2022-09-23T05:31:26;10.60;99.90
11280;DHT22;5696;50.928;6.960;2022-09-23T05:33:58;10.60;99.90
11280;DHT22;5696;50.928;6.960;2022-09-23T05:36:25;10.60;99.90
11280;DHT22;5696;50.928;6.960;2022-09-23T05:38:52;10.70;99.90
11280;DHT22;5696;50.928;6.960;2022-09-23T05:41:21;10.70;99.90
11280;DHT22;5696;50.928;6.960;2022-09-23T05:43:47;10.80;99.90
11280;DHT22;5696;50.928;6.960;2022-09-23T05:46:18;10.80;99.90
11280;DHT22;5696;50.928;6.960;2022-09-23T05:48:44;10.90;99.90
11280;DHT22;5696;50.928;6.960;2022-09-23T05:51:19;11.10;99.90
11280;DHT22;5696;50.928;6.960;2022-09-23T05:53:46;11.30;99.90
11280;DHT22;5696;50.928;6.960;2022-09-23T05:56:14;11.30;99.90
11280;DHT22;5696;50.928;6.960;2022-09-23T05:58:40;11.40;99.90
11280;DHT22;5696;50.928;6.960;2022-09-23T06:01:11;11.60;99.90
11280;DHT22;5696;50.928;6.960;2022-09-23T06:03:37;11.80;99.90
11280;DHT22;5696;50.928;6.960;2022-09-23T06:06:03;12.10;99.90
11280;DHT22;5696;50.928;6.960;2022-09-23T06:08:29;12.50;99.90
11280;DHT22;5696;50.928;6.960;2022-09-23T06:10:54;13.30;99.90
11280;DHT22;5696;50.928;6.960;2022-09-23T06:13:20;14.60;99.90
11280;DHT22;5696;50.928;6.960;2022-09-23T06:15:46;14.80;99.90
11280;DHT22;5696;50.928;6.960;2022-09-23T06:18:12;15.00;99.90
11280;DHT22;5696;50.928;6.960;2022-09-23T06:20:38;15.10;99.90
11280;DHT22;5696;50.928;6.960;2022-09-23T06:23:08;14.60;99.90
11280;DHT22;5696;50.928;6.960;2022-09-23T06:25:36;15.60;99.90
11280;DHT22;5696;50.928;6.960;2022-09-23T06:28:05;16.00;99.90
11280;DHT22;5696;50.928;6.960;2022-09-23T06:30:37;16.30;99.90
11280;DHT22;5696;50.928;6.960;2022-09-23T06:33:04;17.00;99.90
11280;DHT22;5696;50.928;6.960;2022-09-23T06:35:29;16.90;99.90
11280;DHT22;5696;50.928;6.960;2022-09-23T06:37:58;15.60;99.90
11280;DHT22;5696;50.928;6.960;2022-09-23T06:40:23;14.40;99.90
11280;DHT22;5696;50.928;6.960;2022-09-23T06:42:59;13.70;99.90
11280;DHT22;5696;50.928;6.960;2022-09-23T06:45:25;13.30;99.90
11280;DHT22;5696;50.928;6.960;2022-09-23T06:47:55;13.10;99.90
11280;DHT22;5696;50.928;6.960;2022-09-23T06:50:24;12.70;99.90
11280;DHT22;5696;50.928;6.960;2022-09-23T06:52:54;12.70;99.90
11280;DHT22;5696;50.928;6.960;2022-09-23T06:55:25;12.70;99.90
11280;DHT22;5696;50.928;6.960;2022-09-23T06:57:53;12.60;99.90
11280;DHT22;5696;50.928;6.960;2022-09-23T07:00:19;12.90;99.90
11280;DHT22;5696;50.928;6.960;2022-09-23T07:02:45;12.70;99.90
11280;DHT22;5696;50.928;6.960;2022-09-23T07:05:11;12.90;99.90
11280;DHT22;5696;50.928;6.960;2022-09-23T07:07:37;13.10;99.90
11280;DHT22;5696;50.928;6.960;2022-09-23T07:10:04;13.40;99.90
11280;DHT22;5696;50.928;6.960;2022-09-23T07:12:33;13.30;99.90
11280;DHT22;5696;50.928;6.960;2022-09-23T07:14:59;13.50;99.90
11280;DHT22;5696;50.928;6.960;2022-09-23T07:17:25;13.40;99.90
11280;DHT22;5696;50.928;6.960;2022-09-23T07:19:50;13.50;99.90
11280;DHT22;5696;50.928;6.960;2022-09-23T07:22:17;13.60;99.90
11280;DHT22;5696;50.928;6.960;2022-09-23T07:24:43;13.90;99.90
11280;DHT22;5696;50.928;6.960;2022-09-23T07:27:14;13.70;99.90
11280;DHT22;5696;50.928;6.960;2022-09-23T07:29:44;13.70;99.90
11280;DHT22;5696;50.928;6.960;2022-09-23T07:32:10;14.40;99.90
11280;DHT22;5696;50.928;6.960;2022-09-23T07:34:37;14.60;99.90
11280;DHT22;5696;50.928;6.960;2022-09-23T07:37:03;14.80;99.90
11280;DHT22;5696;50.928;6.960;2022-09-23T07:39:29;14.90;99.90
11280;DHT22;5696;50.928;6.960;2022-09-23T07:41:54;15.10;99.90
11280;DHT22;5696;50.928;6.960;2022-09-23T07:44:20;15.00;99.90
11280;DHT22;5696;50.928;6.960;2022-09-23T07:46:47;15.00;99.90
11280;DHT22;5696;50.928;6.960;2022-09-23T07:49:13;14.90;99.90
11280;DHT22;5696;50.928;6.960;2022-09-23T07:51:39;14.60;99.90
11280;DHT22;5696;50.928;6.960;2022-09-23T07:54:09;14.50;99.90
11280;DHT22;5696;50.928;6.960;2022-09-23T07:56:35;14.70;99.90
11280;DHT22;5696;50.928;6.960;2022-09-23T07:59:02;15.00;99.90
11280;DHT22;5696;50.928;6.960;2022-09-23T08:01:31;15.30;99.90
11280;DHT22;5696;50.928;6.960;2022-09-23T08:03:58;15.10;99.90
11280;DHT22;5696;50.928;6.960;2022-09-23T08:06:25;15.20;99.90
11280;DHT22;5696;50.928;6.960;2022-09-23T08:08:58;14.90;99.90
11280;DHT22;5696;50.928;6.960;2022-09-23T08:11:25;15.20;99.90
11280;DHT22;5696;50.928;6.960;2022-09-23T08:13:52;14.90;99.90
11280;DHT22;5696;50.928;6.960;2022-09-23T08:16:18;15.40;99.90
11280;DHT22;5696;50.928;6.960;2022-09-23T08:18:45;15.80;99.90
11280;DHT22;5696;50.928;6.960;2022-09-23T08:21:11;15.50;99.90
11280;DHT22;5696;50.928;6.960;2022-09-23T08:23:37;15.40;99.90
11280;DHT22;5696;50.928;6.960;2022-09-23T08:26:05;15.20;99.90
11280;DHT22;5696;50.928;6.960;2022-09-23T08:28:31;15.30;99.90
11280;DHT22;5696;50.928;6.960;2022-09-23T08:30:58;15.40;99.90
11280;DHT22;5696;50.928;6.960;2022-09-23T08:33:24;14.90;99.90
11280;DHT22;5696;50.928;6.960;2022-09-23T08:35:51;15.00;99.90
11280;DHT22;5696;50.928;6.960;2022-09-23T08:38:17;15.00;99.90
11280;DHT22;5696;50.928;6.960;2022-09-23T08:40:46;15.00;99.90
11280;DHT22;5696;50.928;6.960;2022-09-23T08:43:26;15.30;99.90
11280;DHT22;5696;50.928;6.960;2022-09-23T08:45:54;15.40;99.90
11280;DHT22;5696;50.928;6.960;2022-09-23T08:48:33;15.50;99.90
11280;DHT22;5696;50.928;6.960;2022-09-23T08:51:04;15.70;99.90
11280;DHT22;5696;50.928;6.960;2022-09-23T08:53:35;15.70;99.90
11280;DHT22;5696;50.928;6.960;2022-09-23T08:56:19;15.80;99.90
11280;DHT22;5696;50.928;6.960;2022-09-23T09:01:40;16.10;99.90
11280;DHT22;5696;50.928;6.960;2022-09-23T09:04:17;16.40;99.90
11280;DHT22;5696;50.928;6.960;2022-09-23T09:06:52;16.20;99.90
11280;DHT22;5696;50.928;6.960;2022-09-23T09:09:34;16.10;99.90
11280;DHT22;5696;50.928;6.960;2022-09-23T09:12:22;16.20;99.90
11280;DHT22;5696;50.928;6.960;2022-09-23T09:15:04;16.30;99.90
11280;DHT22;5696;50.928;6.960;2022-09-23T09:17:36;16.30;99.90
11280;DHT22;5696;50.928;6.960;2022-09-23T09:20:17;16.40;99.90
11280;DHT22;5696;50.928;6.960;2022-09-23T09:22:55;16.90;99.90
11280;DHT22;5696;50.928;6.960;2022-09-23T09:30:39;17.60;99.90
11280;DHT22;5696;50.928;6.960;2022-09-23T09:33:15;17.60;99.90
11280;DHT22;5696;50.928;6.960;2022-09-23T09:36:07;17.60;99.90
11280;DHT22;5696;50.928;6.960;2022-09-23T09:38:36;17.90;99.90
11280;DHT22;5696;50.928;6.960;2022-09-23T09:41:13;18.00;99.90
11280;DHT22;5696;50.928;6.960;2022-09-23T09:43:40;18.00;99.90
11280;DHT22;5696;50.928;6.960;2022-09-23T09:48:57;18.20;99.90
11280;DHT22;5696;50.928;6.960;2022-09-23T09:51:27;18.30;99.90
11280;DHT22;5696;50.928;6.960;2022-09-23T09:53:54;18.00;99.90
11280;DHT22;5696;50.928;6.960;2022-09-23T09:56:39;17.90;99.90
11280;DHT22;5696;50.928;6.960;2022-09-23T09:59:14;17.90;99.90
11280;DHT22;5696;50.928;6.960;2022-09-23T10:01:41;17.50;99.90
11280;DHT22;5696;50.928;6.960;2022-09-23T10:04:30;17.50;99.90
11280;DHT22;5696;50.928;6.960;2022-09-23T10:07:12;17.80;99.90
11280;DHT22;5696;50.928;6.960;2022-09-23T10:09:39;18.20;99.90
11280;DHT22;5696;50.928;6.960;2022-09-23T10:12:12;18.20;99.90
11280;DHT22;5696;50.928;6.960;2022-09-23T10:14:41;18.30;99.90
11280;DHT22;5696;50.928;6.960;2022-09-23T10:17:13;18.70;99.90
11280;DHT22;5696;50.928;6.960;2022-09-23T10:19:47;18.90;99.90
11280;DHT22;5696;50.928;6.960;2022-09-23T10:22:24;18.70;99.90
11280;DHT22;5696;50.928;6.960;2022-09-23T10:24:53;18.80;99.90
11280;DHT22;5696;50.928;6.960;2022-09-23T10:27:27;18.80;99.90
11280;DHT22;5696;50.928;6.960;2022-09-23T10:29:57;19.10;99.90
11280;DHT22;5696;50.928;6.960;2022-09-23T10:32:34;19.00;99.90
11280;DHT22;5696;50.928;6.960;2022-09-23T10:40:22;18.90;99.90
11280;DHT22;5696;50.928;6.960;2022-09-23T10:46:27;19.10;99.90
11280;DHT22;5696;50.928;6.960;2022-09-23T10:52:27;19.40;99.40
11280;DHT22;5696;50.928;6.960;2022-09-23T11:08:36;19.40;98.70
11280;DHT22;5696;50.928;6.960;2022-09-23T11:17:32;19.50;98.00
11280;DHT22;5696;50.928;6.960;2022-09-23T11:22:45;18.90;99.20
11280;DHT22;5696;50.928;6.960;2022-09-23T11:36:06;19.40;98.20
11280;DHT22;5696;50.928;6.960;2022-09-23T11:38:43;19.40;97.80
11280;DHT22;5696;50.928;6.960;2022-09-23T11:41:33;19.50;98.30
11280;DHT22;5696;50.928;6.960;2022-09-23T11:44:25;19.50;97.70
11280;DHT22;5696;50.928;6.960;2022-09-23T11:47:08;19.20;98.10
11280;DHT22;5696;50.928;6.960;2022-09-23T11:49:44;19.10;98.70
11280;DHT22;5696;50.928;6.960;2022-09-23T11:52:24;19.20;97.80
11280;DHT22;5696;50.928;6.960;2022-09-23T11:54:53;19.10;98.10
11280;DHT22;5696;50.928;6.960;2022-09-23T11:58:13;19.50;98.00
11280;DHT22;5696;50.928;6.960;2022-09-23T12:00:21;19.90;97.40
11280;DHT22;5696;50.928;6.960;2022-09-23T12:03:05;20.00;97.10
11280;DHT22;5696;50.928;6.960;2022-09-23T12:06:00;20.20;95.30
11280;DHT22;5696;50.928;6.960;2022-09-23T12:08:31;20.40;94.60
11280;DHT22;5696;50.928;6.960;2022-09-23T12:11:27;20.20;94.40
11280;DHT22;5696;50.928;6.960;2022-09-23T12:14:01;20.20;93.60
11280;DHT22;5696;50.928;6.960;2022-09-23T12:16:50;20.30;93.40
11280;DHT22;5696;50.928;6.960;2022-09-23T12:24:58;20.50;92.20
11280;DHT22;5696;50.928;6.960;2022-09-23T12:27:42;20.10;91.40
11280;DHT22;5696;50.928;6.960;2022-09-23T12:30:16;20.10;91.60
11280;DHT22;5696;50.928;6.960;2022-09-23T12:32:43;20.50;91.60
11280;DHT22;5696;50.928;6.960;2022-09-23T12:35:30;20.80;90.60
11280;DHT22;5696;50.928;6.960;2022-09-23T12:37:59;20.50;90.00
11280;DHT22;5696;50.928;6.960;2022-09-23T12:40:43;20.30;90.20
11280;DHT22;5696;50.928;6.960;2022-09-23T12:43:35;20.20;90.50
11280;DHT22;5696;50.928;6.960;2022-09-23T12:46:22;20.50;90.60
11280;DHT22;5696;50.928;6.960;2022-09-23T12:51:26;20.70;90.00
11280;DHT22;5696;50.928;6.960;2022-09-23T12:54:14;20.90;88.00
11280;DHT22;5696;50.928;6.960;2022-09-23T12:56:57;20.60;87.50
11280;DHT22;5696;50.928;6.960;2022-09-23T12:59:28;20.40;88.60
11280;DHT22;5696;50.928;6.960;2022-09-23T13:01:55;20.40;88.70
11280;DHT22;5696;50.928;6.960;2022-09-23T13:04:29;20.40;88.20
11280;DHT22;5696;50.928;6.960;2022-09-23T13:07:16;20.50;88.20
11280;DHT22;5696;50.928;6.960;2022-09-23T13:09:47;20.40;88.20
11280;DHT22;5696;50.928;6.960;2022-09-23T13:12:29;20.70;87.00
11280;DHT22;5696;50.928;6.960;2022-09-23T13:15:00;20.70;87.90
11280;DHT22;5696;50.928;6.960;2022-09-23T13:17:35;20.50;88.50
11280;DHT22;5696;50.928;6.960;2022-09-23T13:25:21;20.50;88.60
11280;DHT22;5696;50.928;6.960;2022-09-23T13:27:50;20.50;88.70
11280;DHT22;5696;50.928;6.960;2022-09-23T13:30:20;20.30;88.40
11280;DHT22;5696;50.928;6.960;2022-09-23T13:32:50;20.10;88.60
11280;DHT22;5696;50.928;6.960;2022-09-23T13:35:24;19.90;89.50
11280;DHT22;5696;50.928;6.960;2022-09-23T13:37:52;19.90;89.60
11280;DHT22;5696;50.928;6.960;2022-09-23T13:40:22;20.00;89.50
11280;DHT22;5696;50.928;6.960;2022-09-23T13:43:02;20.00;89.90
11280;DHT22;5696;50.928;6.960;2022-09-23T13:45:29;20.10;90.50
11280;DHT22;5696;50.928;6.960;2022-09-23T13:48:02;20.20;91.20
11280;DHT22;5696;50.928;6.960;2022-09-23T13:50:30;20.30;91.10
11280;DHT22;5696;50.928;6.960;2022-09-23T13:53:00;20.40;91.10
11280;DHT22;5696;50.928;6.960;2022-09-23T13:55:34;20.40;91.70
11280;DHT22;5696;50.928;6.960;2022-09-23T13:58:17;20.40;90.90
11280;DHT22;5696;50.928;6.960;2022-09-23T14:00:44;20.50;91.30
11280;DHT22;5696;50.928;6.960;2022-09-23T14:03:26;20.60;91.10
11280;DHT22;5696;50.928;6.960;2022-09-23T14:05:54;20.40;91.00
11280;DHT22;5696;50.928;6.960;2022-09-23T14:08:20;20.30;91.30
11280;DHT22;5696;50.928;6.960;2022-09-23T14:10:47;20.40;91.60
11280;DHT22;5696;50.928;6.960;2022-09-23T14:13:16;20.50;91.30
11280;DHT22;5696;50.928;6.960;2022-09-23T14:15:44;20.50;91.20
11280;DHT22;5696;50.928;6.960;2022-09-23T14:18:29;20.50;91.00
11280;DHT22;5696;50.928;6.960;2022-09-23T14:20:57;20.60;90.80
11280;DHT22;5696;50.928;6.960;2022-09-23T14:23:23;20.50;91.10
11280;DHT22;5696;50.928;6.960;2022-09-23T14:25:52;20.50;91.00
11280;DHT22;5696;50.928;6.960;2022-09-23T14:28:21;20.40;90.90
11280;DHT22;5696;50.928;6.960;2022-09-23T14:30:50;20.20;91.00
11280;DHT22;5696;50.928;6.960;2022-09-23T14:33:25;20.40;91.20
11280;DHT22;5696;50.928;6.960;2022-09-23T14:35:53;20.40;91.50
11280;DHT22;5696;50.928;6.960;2022-09-23T14:38:25;20.50;91.30
11280;DHT22;5696;50.928;6.960;2022-09-23T14:41:23;20.50;91.40
11280;DHT22;5696;50.928;6.960;2022-09-23T14:43:59;20.50;91.50
11280;DHT22;5696;50.928;6.960;2022-09-23T14:46:27;20.70;91.40
11280;DHT22;5696;50.928;6.960;2022-09-23T14:54:32;20.10;92.50
11280;DHT22;5696;50.928;6.960;2022-09-23T14:57:01;20.20;92.90
11280;DHT22;5696;50.928;6.960;2022-09-23T14:59:35;20.10;93.20
11280;DHT22;5696;50.928;6.960;2022-09-23T15:04:46;19.80;93.90
11280;DHT22;5696;50.928;6.960;2022-09-23T15:07:16;19.70;94.20
11280;DHT22;5696;50.928;6.960;2022-09-23T15:09:43;19.70;94.90
11280;DHT22;5696;50.928;6.960;2022-09-23T15:12:14;19.60;94.90
11280;DHT22;5696;50.928;6.960;2022-09-23T15:14:42;19.70;94.80
11280;DHT22;5696;50.928;6.960;2022-09-23T15:17:29;19.60;95.20
11280;DHT22;5696;50.928;6.960;2022-09-23T15:20:03;19.50;95.00
11280;DHT22;5696;50.928;6.960;2022-09-23T15:22:29;19.50;94.60
11280;DHT22;5696;50.928;6.960;2022-09-23T15:27:54;19.40;95.00
11280;DHT22;5696;50.928;6.960;2022-09-23T15:30:20;19.40;95.40
11280;DHT22;5696;50.928;6.960;2022-09-23T15:32:46;19.40;94.80
11280;DHT22;5696;50.928;6.960;2022-09-23T15:35:17;19.50;93.60
11280;DHT22;5696;50.928;6.960;2022-09-23T15:37:44;19.60;92.80
11280;DHT22;5696;50.928;6.960;2022-09-23T15:40:31;19.50;92.50
11280;DHT22;5696;50.928;6.960;2022-09-23T15:43:00;19.50;92.40
11280;DHT22;5696;50.928;6.960;2022-09-23T15:45:35;19.40;91.70
11280;DHT22;5696;50.928;6.960;2022-09-23T15:48:06;19.50;91.90
11280;DHT22;5696;50.928;6.960;2022-09-23T15:50:34;19.40;92.70
11280;DHT22;5696;50.928;6.960;2022-09-23T15:53:00;19.40;92.40
11280;DHT22;5696;50.928;6.960;2022-09-23T15:55:26;19.30;92.20
11280;DHT22;5696;50.928;6.960;2022-09-23T15:57:51;19.30;92.90
11280;DHT22;5696;50.928;6.960;2022-09-23T16:00:17;19.30;93.00
11280;DHT22;5696;50.928;6.960;2022-09-23T16:02:45;19.30;93.30
11280;DHT22;5696;50.928;6.960;2022-09-23T16:07:51;19.10;93.80
11280;DHT22;5696;50.928;6.960;2022-09-23T16:10:21;18.90;94.10
11280;DHT22;5696;50.928;6.960;2022-09-23T16:12:47;18.80;94.30
11280;DHT22;5696;50.928;6.960;2022-09-23T16:15:16;18.80;94.20
11280;DHT22;5696;50.928;6.960;2022-09-23T16:17:42;18.70;94.60
11280;DHT22;5696;50.928;6.960;2022-09-23T16:20:10;18.70;94.80
11280;DHT22;5696;50.928;6.960;2022-09-23T16:22:37;18.60;95.00
11280;DHT22;5696;50.928;6.960;2022-09-23T16:25:04;18.50;95.30
11280;DHT22;5696;50.928;6.960;2022-09-23T16:27:30;18.50;95.90
11280;DHT22;5696;50.928;6.960;2022-09-23T16:29:56;18.50;95.00
11280;DHT22;5696;50.928;6.960;2022-09-23T16:32:21;18.50;95.50
11280;DHT22;5696;50.928;6.960;2022-09-23T16:34:48;18.40;95.90
11280;DHT22;5696;50.928;6.960;2022-09-23T16:37:14;18.40;96.20
11280;DHT22;5696;50.928;6.960;2022-09-23T16:39:41;18.40;96.20
11280;DHT22;5696;50.928;6.960;2022-09-23T16:42:06;18.40;96.20
11280;DHT22;5696;50.928;6.960;2022-09-23T16:44:32;18.30;96.40
11280;DHT22;5696;50.928;6.960;2022-09-23T16:46:58;18.30;96.60
11280;DHT22;5696;50.928;6.960;2022-09-23T16:49:24;18.30;96.90
11280;DHT22;5696;50.928;6.960;2022-09-23T16:51:49;18.20;96.60
11280;DHT22;5696;50.928;6.960;2022-09-23T16:54:15;18.20;97.40
11280;DHT22;5696;50.928;6.960;2022-09-23T16:56:42;18.10;97.40
11280;DHT22;5696;50.928;6.960;2022-09-23T16:59:12;18.00;98.00
11280;DHT22;5696;50.928;6.960;2022-09-23T17:01:39;18.00;98.10
11280;DHT22;5696;50.928;6.960;2022-09-23T17:04:23;17.90;98.20
11280;DHT22;5696;50.928;6.960;2022-09-23T17:06:50;17.70;98.40
11280;DHT22;5696;50.928;6.960;2022-09-23T17:09:21;17.70;98.80
11280;DHT22;5696;50.928;6.960;2022-09-23T17:12:00;17.60;99.30
11280;DHT22;5696;50.928;6.960;2022-09-23T17:14:29;17.60;99.60
11280;DHT22;5696;50.928;6.960;2022-09-23T17:16:58;17.50;99.80
11280;DHT22;5696;50.928;6.960;2022-09-23T17:19:24;17.40;99.90
11280;DHT22;5696;50.928;6.960;2022-09-23T17:21:52;17.30;99.90
11280;DHT22;5696;50.928;6.960;2022-09-23T17:24:17;17.30;99.90
11280;DHT22;5696;50.928;6.960;2022-09-23T17:26:43;17.20;99.90
11280;DHT22;5696;50.928;6.960;2022-09-23T17:29:10;17.20;99.90
11280;DHT22;5696;50.928;6.960;2022-09-23T17:31:36;17.20;99.90
11280;DHT22;5696;50.928;6.960;2022-09-23T17:34:02;17.10;99.90
11280;DHT22;5696;50.928;6.960;2022-09-23T17:36:28;17.10;99.90
11280;DHT22;5696;50.928;6.960;2022-09-23T17:38:54;17.10;99.90
11280;DHT22;5696;50.928;6.960;2022-09-23T17:41:20;17.10;99.90
11280;DHT22;5696;50.928;6.960;2022-09-23T17:43:46;17.00;99.90
11280;DHT22;5696;50.928;6.960;2022-09-23T17:46:14;17.00;99.90
11280;DHT22;5696;50.928;6.960;2022-09-23T17:48:42;17.00;99.90
11280;DHT22;5696;50.928;6.960;2022-09-23T17:51:10;16.90;99.90
11280;DHT22;5696;50.928;6.960;2022-09-23T17:53:38;17.00;99.90
11280;DHT22;5696;50.928;6.960;2022-09-23T17:58:37;17.00;99.90
11280;DHT22;5696;50.928;6.960;2022-09-23T18:01:18;17.00;99.90
11280;DHT22;5696;50.928;6.960;2022-09-23T18:03:44;16.80;99.90
11280;DHT22;5696;50.928;6.960;2022-09-23T18:06:20;16.80;99.90
11280;DHT22;5696;50.928;6.960;2022-09-23T18:08:47;16.80;99.90
11280;DHT22;5696;50.928;6.960;2022-09-23T18:11:30;16.70;99.90
11280;DHT22;5696;50.928;6.960;2022-09-23T18:14:11;16.70;99.90
11280;DHT22;5696;50.928;6.960;2022-09-23T18:16:42;16.70;99.90
11280;DHT22;5696;50.928;6.960;2022-09-23T18:19:11;16.70;99.90
11280;DHT22;5696;50.928;6.960;2022-09-23T18:21:39;16.70;99.90
11280;DHT22;5696;50.928;6.960;2022-09-23T18:24:06;16.60;99.90
11280;DHT22;5696;50.928;6.960;2022-09-23T18:26:32;16.60;99.90
11280;DHT22;5696;50.928;6.960;2022-09-23T18:28:59;16.60;99.90
11280;DHT22;5696;50.928;6.960;2022-09-23T18:31:29;16.60;99.90
11280;DHT22;5696;50.928;6.960;2022-09-23T18:33:59;16.70;99.90
11280;DHT22;5696;50.928;6.960;2022-09-23T18:36:24;16.70;99.90
11280;DHT22;5696;50.928;6.960;2022-09-23T18:38:50;16.60;99.90
11280;DHT22;5696;50.928;6.960;2022-09-23T18:41:17;16.60;99.90
11280;DHT22;5696;50.928;6.960;2022-09-23T18:43:43;16.50;99.90
11280;DHT22;5696;50.928;6.960;2022-09-23T18:46:12;16.50;99.90
11280;DHT22;5696;50.928;6.960;2022-09-23T18:48:38;16.50;99.90
11280;DHT22;5696;50.928;6.960;2022-09-23T18:51:23;16.40;99.90
11280;DHT22;5696;50.928;6.960;2022-09-23T18:53:50;16.40;99.90
11280;DHT22;5696;50.928;6.960;2022-09-23T18:56:24;16.40;99.90
11280;DHT22;5696;50.928;6.960;2022-09-23T18:58:52;16.40;99.90
11280;DHT22;5696;50.928;6.960;2022-09-23T19:01:19;16.40;99.90
11280;DHT22;5696;50.928;6.960;2022-09-23T19:03:45;16.30;99.90
11280;DHT22;5696;50.928;6.960;2022-09-23T19:06:14;16.30;99.90
11280;DHT22;5696;50.928;6.960;2022-09-23T19:08:40;16.20;99.90
11280;DHT22;5696;50.928;6.960;2022-09-23T19:11:11;16.20;99.90
11280;DHT22;5696;50.928;6.960;2022-09-23T19:13:38;16.20;99.90
11280;DHT22;5696;50.928;6.960;2022-09-23T19:16:09;16.10;99.90
11280;DHT22;5696;50.928;6.960;2022-09-23T19:18:37;16.10;99.90
11280;DHT22;5696;50.928;6.960;2022-09-23T19:21:04;16.10;99.90
11280;DHT22;5696;50.928;6.960;2022-09-23T19:23:31;16.20;99.90
11280;DHT22;5696;50.928;6.960;2022-09-23T19:26:05;16.20;99.90
11280;DHT22;5696;50.928;6.960;2022-09-23T19:28:31;16.20;99.90
11280;DHT22;5696;50.928;6.960;2022-09-23T19:30:57;16.20;99.90
11280;DHT22;5696;50.928;6.960;2022-09-23T19:33:23;16.20;99.90
11280;DHT22;5696;50.928;6.960;2022-09-23T19:35:50;16.20;99.90
11280;DHT22;5696;50.928;6.960;2022-09-23T19:38:19;16.10;99.90
11280;DHT22;5696;50.928;6.960;2022-09-23T19:40:46;16.10;99.90
11280;DHT22;5696;50.928;6.960;2022-09-23T19:43:13;16.10;99.90
11280;DHT22;5696;50.928;6.960;2022-09-23T19:45:39;16.10;99.90
11280;DHT22;5696;50.928;6.960;2022-09-23T19:48:05;16.00;99.90
11280;DHT22;5696;50.928;6.960;2022-09-23T19:50:45;16.00;99.90
11280;DHT22;5696;50.928;6.960;2022-09-23T19:53:11;16.00;99.90
11280;DHT22;5696;50.928;6.960;2022-09-23T19:55:38;16.00;99.90
11280;DHT22;5696;50.928;6.960;2022-09-23T19:58:04;16.00;99.90
11280;DHT22;5696;50.928;6.960;2022-09-23T20:00:31;16.00;99.90
11280;DHT22;5696;50.928;6.960;2022-09-23T20:02:57;16.00;99.90
11280;DHT22;5696;50.928;6.960;2022-09-23T20:05:25;15.90;99.90
11280;DHT22;5696;50.928;6.960;2022-09-23T20:07:54;15.90;99.90
11280;DHT22;5696;50.928;6.960;2022-09-23T20:10:20;15.90;99.90
11280;DHT22;5696;50.928;6.960;2022-09-23T20:12:50;15.90;99.90
11280;DHT22;5696;50.928;6.960;2022-09-23T20:15:16;15.90;99.90
11280;DHT22;5696;50.928;6.960;2022-09-23T20:17:42;15.80;99.90
11280;DHT22;5696;50.928;6.960;2022-09-23T20:20:10;15.80;99.90
11280;DHT22;5696;50.928;6.960;2022-09-23T20:22:36;15.70;99.90
11280;DHT22;5696;50.928;6.960;2022-09-23T20:25:03;15.70;99.90
11280;DHT22;5696;50.928;6.960;2022-09-23T20:27:29;15.70;99.90
11280;DHT22;5696;50.928;6.960;2022-09-23T20:29:59;15.60;99.90
11280;DHT22;5696;50.928;6.960;2022-09-23T20:32:26;15.60;99.90
11280;DHT22;5696;50.928;6.960;2022-09-23T20:34:53;15.60;99.90
11280;DHT22;5696;50.928;6.960;2022-09-23T20:37:21;15.60;99.90
11280;DHT22;5696;50.928;6.960;2022-09-23T20:39:50;15.60;99.90
11280;DHT22;5696;50.928;6.960;2022-09-23T20:42:17;15.60;99.90
11280;DHT22;5696;50.928;6.960;2022-09-23T20:44:45;15.60;99.90
11280;DHT22;5696;50.928;6.960;2022-09-23T20:47:12;15.60;99.90
11280;DHT22;5696;50.928;6.960;2022-09-23T20:49:42;15.60;99.90
11280;DHT22;5696;50.928;6.960;2022-09-23T20:52:13;15.50;99.90
11280;DHT22;5696;50.928;6.960;2022-09-23T20:54:39;15.50;99.90
11280;DHT22;5696;50.928;6.960;2022-09-23T20:57:08;15.60;99.90
11280;DHT22;5696;50.928;6.960;2022-09-23T20:59:34;15.70;99.90
11280;DHT22;5696;50.928;6.960;2022-09-23T21:02:00;15.60;99.90
11280;DHT22;5696;50.928;6.960;2022-09-23T21:04:27;15.60;99.90
11280;DHT22;5696;50.928;6.960;2022-09-23T21:06:54;15.50;99.90
11280;DHT22;5696;50.928;6.960;2022-09-23T21:09:24;15.60;99.90
11280;DHT22;5696;50.928;6.960;2022-09-23T21:11:52;15.50;99.90
11280;DHT22;5696;50.928;6.960;2022-09-23T21:14:18;15.50;99.90
11280;DHT22;5696;50.928;6.960;2022-09-23T21:16:49;15.50;99.90
11280;DHT22;5696;50.928;6.960;2022-09-23T21:19:16;15.50;99.90
11280;DHT22;5696;50.928;6.960;2022-09-23T21:21:42;15.50;99.90
11280;DHT22;5696;50.928;6.960;2022-09-23T21:24:08;15.50;99.90
11280;DHT22;5696;50.928;6.960;2022-09-23T21:26:33;15.50;99.90
11280;DHT22;5696;50.928;6.960;2022-09-23T21:29:00;15.50;99.90
11280;DHT22;5696;50.928;6.960;2022-09-23T21:31:31;15.50;99.90
11280;DHT22;5696;50.928;6.960;2022-09-23T21:34:03;15.60;99.90
11280;DHT22;5696;50.928;6.960;2022-09-23T21:36:37;15.50;99.90
11280;DHT22;5696;50.928;6.960;2022-09-23T21:39:04;15.50;99.90
11280;DHT22;5696;50.928;6.960;2022-09-23T21:41:30;15.40;99.90
11280;DHT22;5696;50.928;6.960;2022-09-23T21:43:56;15.40;99.90
11280;DHT22;5696;50.928;6.960;2022-09-23T21:46:23;15.40;99.90
11280;DHT22;5696;50.928;6.960;2022-09-23T21:48:51;15.40;99.90
11280;DHT22;5696;50.928;6.960;2022-09-23T21:51:26;15.40;99.90
11280;DHT22;5696;50.928;6.960;2022-09-23T21:53:54;15.40;99.90
11280;DHT22;5696;50.928;6.960;2022-09-23T21:56:22;15.40;99.90
11280;DHT22;5696;50.928;6.960;2022-09-23T21:58:48;15.30;99.90
11280;DHT22;5696;50.928;6.960;2022-09-23T22:01:15;15.30;99.90
11280;DHT22;5696;50.928;6.960;2022-09-23T22:03:42;15.20;99.90
11280;DHT22;5696;50.928;6.960;2022-09-23T22:06:13;15.20;99.90
11280;DHT22;5696;50.928;6.960;2022-09-23T22:08:40;15.20;99.90
11280;DHT22;5696;50.928;6.960;2022-09-23T22:11:12;15.30;99.90
11280;DHT22;5696;50.928;6.960;2022-09-23T22:13:59;15.30;99.90
11280;DHT22;5696;50.928;6.960;2022-09-23T22:16:25;15.20;99.90
11280;DHT22;5696;50.928;6.960;2022-09-23T22:18:54;15.20;99.90
11280;DHT22;5696;50.928;6.960;2022-09-23T22:21:21;15.20;99.90
11280;DHT22;5696;50.928;6.960;2022-09-23T22:23:47;15.20;99.90
11280;DHT22;5696;50.928;6.960;2022-09-23T22:26:13;15.20;99.90
11280;DHT22;5696;50.928;6.960;2022-09-23T22:28:39;15.20;99.90
11280;DHT22;5696;50.928;6.960;2022-09-23T22:31:23;15.30;99.90